createdAt,value
2019-04-26T00:00:34.623Z,43.75
2019-04-26T00:03:07.780Z,34.98
2019-04-26T00:05:38.662Z,27.15
2019-04-26T00:08:10.377Z,36.45
2019-04-26T00:10:49.498Z,27.55
2019-04-26T00:13:35.123Z,28.02
2019-04-26T00:16:18.901Z,33.00
2019-04-26T00:18:48.308Z,41.88
2019-04-26T00:21:18.333Z,26.73
2019-04-26T00:23:48.258Z,30.77
2019-04-26T00:26:18.420Z,31.00
2019-04-26T00:28:47.765Z,33.33
2019-04-26T00:31:17.261Z,27.32
2019-04-26T00:33:46.922Z,33.98
2019-04-26T00:36:16.658Z,31.68
2019-04-26T00:38:46.398Z,40.78
2019-04-26T00:41:16.644Z,31.90
2019-04-26T00:43:47.098Z,29.77
2019-04-26T00:46:18.857Z,31.30
2019-04-26T00:48:50.074Z,32.45
2019-04-26T00:51:19.724Z,38.67
2019-04-26T00:53:50.671Z,24.30
2019-04-26T00:56:20.649Z,30.85
2019-04-26T00:58:51.367Z,32.28
2019-04-26T01:01:22.849Z,33.95
2019-04-26T01:03:52.536Z,32.53
2019-04-26T01:06:23.825Z,28.55
2019-04-26T01:08:53.226Z,34.15
2019-04-26T01:11:22.574Z,35.08
2019-04-26T01:13:51.923Z,27.65
2019-04-26T01:16:22.162Z,29.42
2019-04-26T01:18:53.995Z,31.90
2019-04-26T01:21:26.901Z,32.73
2019-04-26T01:23:59.648Z,34.35
2019-04-26T01:26:33.554Z,33.65
2019-04-26T01:29:07.655Z,35.98
2019-04-26T01:31:42.854Z,41.48
2019-04-26T01:34:12.202Z,30.25
2019-04-26T01:36:42.659Z,31.27
2019-04-26T01:39:21.289Z,31.60
2019-04-26T01:42:17.505Z,33.75
2019-04-26T01:45:04.051Z,31.68
2019-04-26T01:47:33.891Z,29.55
2019-04-26T01:50:03.870Z,28.20
2019-04-26T01:52:33.288Z,27.80
2019-04-26T01:55:02.716Z,27.30
2019-04-26T01:57:33.168Z,36.28
2019-04-26T02:00:15.585Z,33.45
2019-04-26T02:02:57.974Z,29.75
2019-04-26T02:05:28.028Z,44.15
2019-04-26T02:07:58.046Z,36.95
2019-04-26T02:10:28.720Z,31.97
2019-04-26T02:13:00.051Z,40.30
2019-04-26T02:15:33.360Z,37.28
2019-04-26T02:18:04.919Z,38.42
2019-04-26T02:20:56.511Z,40.17
2019-04-26T02:23:34.620Z,30.90
2019-04-26T02:26:21.638Z,29.32
2019-04-26T02:28:51.490Z,39.58
2019-04-26T02:31:20.853Z,32.63
2019-04-26T02:33:51.371Z,27.65
2019-04-26T02:36:22.114Z,32.10
2019-04-26T02:38:54.159Z,34.43
2019-04-26T02:41:23.575Z,36.98
2019-04-26T02:43:56.027Z,32.03
2019-04-26T02:46:39.035Z,32.08
2019-04-26T02:49:24.462Z,32.88
2019-04-26T02:52:01.274Z,25.97
2019-04-26T02:54:45.794Z,29.18
2019-04-26T02:57:38.859Z,27.65
2019-04-26T03:00:12.929Z,31.07
2019-04-26T03:02:44.428Z,35.80
2019-04-26T03:05:14.762Z,34.50
2019-04-26T03:08:10.159Z,26.40
2019-04-26T03:10:45.190Z,27.32
2019-04-26T03:13:27.567Z,24.67
2019-04-26T03:16:10.168Z,32.53
2019-04-26T03:18:55.586Z,28.55
2019-04-26T03:21:34.526Z,31.15
2019-04-26T03:24:17.844Z,37.17
2019-04-26T03:27:20.645Z,33.92
2019-04-26T03:30:22.312Z,34.05
2019-04-26T03:33:25.784Z,32.00
2019-04-26T03:36:25.117Z,34.70
2019-04-26T03:39:08.069Z,26.23
2019-04-26T03:42:05.024Z,30.52
2019-04-26T03:44:53.643Z,33.42
2019-04-26T03:47:27.015Z,29.55
2019-04-26T03:50:25.197Z,29.85
2019-04-26T03:53:32.608Z,26.35
2019-04-26T03:56:24.984Z,27.62
2019-04-26T03:59:11.287Z,31.52
2019-04-26T04:01:50.760Z,27.05
2019-04-26T04:04:46.658Z,28.87
2019-04-26T04:07:35.670Z,28.70
2019-04-26T04:09:56.041Z,30.17
2019-04-26T04:12:36.215Z,29.35
2019-04-26T04:15:15.940Z,38.95
2019-04-26T04:17:55.180Z,32.13
2019-04-26T04:20:48.269Z,42.98
2019-04-26T04:23:30.947Z,43.68
2019-04-26T04:26:03.364Z,34.88
2019-04-26T04:28:44.530Z,27.55
2019-04-26T04:31:23.837Z,31.50
2019-04-26T04:34:13.444Z,36.60
2019-04-26T04:36:51.549Z,32.65
2019-04-26T04:39:35.403Z,30.48
2019-04-26T04:42:50.476Z,42.50
2019-04-26T04:46:04.324Z,33.83
2019-04-26T04:49:09.473Z,40.33
2019-04-26T04:52:17.139Z,33.98
2019-04-26T04:55:06.355Z,29.00
2019-04-26T04:57:50.439Z,28.35
2019-04-26T05:00:58.804Z,44.63
2019-04-26T05:03:42.356Z,62.13
2019-04-26T05:06:49.834Z,31.68
2019-04-26T05:09:34.385Z,28.73
2019-04-26T05:12:15.195Z,29.23
2019-04-26T05:15:15.897Z,24.52
2019-04-26T05:18:22.027Z,33.00
2019-04-26T05:21:25.409Z,34.45
2019-04-26T05:24:35.770Z,24.75
2019-04-26T05:27:34.003Z,31.50
2019-04-26T05:30:40.730Z,34.75
2019-04-26T05:33:36.670Z,30.95
2019-04-26T05:36:31.867Z,36.45
2019-04-26T05:39:09.968Z,25.72
2019-04-26T05:42:38.040Z,29.23
2019-04-26T05:45:59.263Z,27.17
2019-04-26T05:48:55.859Z,34.10
2019-04-26T05:52:18.817Z,27.20
2019-04-26T05:55:33.379Z,22.13
2019-04-26T05:58:43.866Z,27.87
2019-04-26T06:02:20.569Z,25.90
2019-04-26T06:05:23.066Z,27.17
2019-04-26T06:08:10.321Z,30.05
2019-04-26T06:10:50.059Z,20.43
2019-04-26T06:13:45.624Z,32.48
2019-04-26T06:16:32.943Z,26.52
2019-04-26T06:19:49.241Z,39.83
2019-04-26T06:22:35.439Z,51.58
2019-04-26T06:25:55.590Z,24.75
2019-04-26T06:29:01.063Z,27.20
2019-04-26T06:31:38.581Z,23.57
2019-04-26T06:34:20.199Z,21.40
2019-04-26T06:37:06.017Z,21.30
2019-04-26T06:39:45.402Z,24.98
2019-04-26T06:43:02.831Z,24.32
2019-04-26T06:46:47.507Z,24.15
2019-04-26T06:49:53.060Z,25.60
2019-04-26T06:52:26.360Z,29.52
2019-04-26T06:55:06.794Z,30.82
2019-04-26T06:58:18.308Z,26.45
2019-04-26T07:01:14.467Z,19.25
2019-04-26T07:04:16.856Z,24.77
2019-04-26T07:07:11.596Z,27.98
2019-04-26T07:10:31.376Z,19.42
2019-04-26T07:13:34.228Z,23.57
2019-04-26T07:16:23.427Z,32.73
2019-04-26T07:19:20.046Z,25.70
2019-04-26T07:22:35.487Z,27.85
2019-04-26T07:25:26.892Z,37.35
2019-04-26T07:28:39.946Z,23.32
2019-04-26T07:31:22.437Z,27.70
2019-04-26T07:34:30.771Z,24.47
2019-04-26T07:37:39.722Z,37.05
2019-04-26T07:40:53.550Z,58.55
2019-04-26T07:44:02.767Z,28.87
2019-04-26T07:47:18.707Z,39.35
2019-04-26T07:50:24.979Z,31.93
2019-04-26T07:53:11.267Z,26.25
2019-04-26T07:55:54.379Z,19.35
2019-04-26T07:59:29.110Z,16.70
2019-04-26T08:02:27.535Z,22.65
2019-04-26T08:05:05.580Z,16.82
2019-04-26T08:07:40.876Z,13.93
2019-04-26T08:10:17.319Z,22.58
2019-04-26T08:12:57.523Z,10.23
2019-04-26T08:16:04.906Z,15.40
2019-04-26T08:18:57.018Z,18.55
2019-04-26T08:21:32.023Z,17.15
2019-04-26T08:24:27.855Z,15.18
2019-04-26T08:27:18.669Z,18.70
2019-04-26T08:29:46.078Z,13.30
2019-04-26T08:32:28.191Z,18.27
2019-04-26T08:35:08.116Z,12.18
2019-04-26T08:37:46.365Z,11.95
2019-04-26T08:40:26.547Z,15.72
2019-04-26T08:42:59.310Z,12.30
2019-04-26T08:45:40.495Z,14.98
2019-04-26T08:48:37.252Z,10.18
2019-04-26T08:51:16.438Z,11.85
2019-04-26T08:53:44.636Z,13.50
2019-04-26T08:56:17.247Z,9.48
2019-04-26T08:58:49.529Z,17.20
2019-04-26T09:01:59.434Z,11.80
2019-04-26T09:04:39.642Z,17.15
2019-04-26T09:07:16.122Z,13.83
2019-04-26T09:09:57.159Z,16.75
2019-04-26T09:12:23.665Z,11.57
2019-04-26T09:14:55.593Z,12.60
2019-04-26T09:17:27.722Z,12.58
2019-04-26T09:19:58.127Z,14.00
2019-04-26T09:22:56.596Z,14.30
2019-04-26T09:25:34.569Z,9.65
2019-04-26T09:28:24.090Z,10.70
2019-04-26T09:31:01.515Z,13.60
2019-04-26T09:33:53.160Z,12.63
2019-04-26T09:36:22.503Z,14.58
2019-04-26T09:38:51.847Z,18.25
2019-04-26T09:41:21.227Z,15.45
2019-04-26T09:44:04.986Z,10.88
2019-04-26T09:46:52.750Z,19.95
2019-04-26T09:49:37.327Z,10.95
2019-04-26T09:52:10.779Z,21.62
2019-04-26T09:54:40.122Z,9.48
2019-04-26T09:57:09.549Z,13.05
2019-04-26T09:59:39.945Z,14.98
2019-04-26T10:02:10.866Z,8.33
2019-04-26T10:04:40.226Z,8.40
2019-04-26T10:07:09.639Z,10.25
2019-04-26T10:09:38.984Z,15.80
2019-04-26T10:12:16.545Z,12.98
2019-04-26T10:14:54.345Z,30.10
2019-04-26T10:17:33.427Z,16.52
2019-04-26T10:20:02.776Z,9.13
2019-04-26T10:22:32.902Z,19.75
2019-04-26T10:25:07.082Z,7.92
2019-04-26T10:27:36.406Z,22.25
2019-04-26T10:30:09.178Z,20.48
2019-04-26T10:32:37.651Z,8.65
2019-04-26T10:35:07.579Z,21.15
2019-04-26T10:37:39.765Z,11.35
2019-04-26T10:40:07.999Z,12.23
2019-04-26T10:42:37.415Z,8.85
2019-04-26T10:45:10.417Z,13.60
2019-04-26T10:47:40.494Z,9.35
2019-04-26T10:50:11.583Z,9.77
2019-04-26T10:53:05.834Z,11.47
2019-04-26T10:55:52.683Z,15.33
2019-04-26T10:58:31.923Z,8.83
2019-04-26T11:01:04.347Z,14.20
2019-04-26T11:03:35.049Z,10.67
2019-04-26T11:06:04.818Z,11.03
2019-04-26T11:08:34.154Z,13.47
2019-04-26T11:11:03.586Z,9.93
2019-04-26T11:13:32.945Z,12.87
2019-04-26T11:16:06.629Z,7.80
2019-04-26T11:18:33.418Z,19.17
2019-04-26T11:21:02.767Z,11.40
2019-04-26T11:23:32.139Z,10.30
2019-04-26T11:26:02.875Z,17.90
2019-04-26T11:28:32.456Z,8.53
2019-04-26T11:31:01.796Z,8.77
2019-04-26T11:33:31.139Z,11.90
2019-04-26T11:36:03.412Z,9.57
2019-04-26T11:38:32.692Z,12.30
2019-04-26T11:41:06.141Z,8.43
2019-04-26T11:43:33.448Z,12.23
2019-04-26T11:46:04.645Z,11.70
2019-04-26T11:48:33.847Z,9.40
2019-04-26T11:51:03.185Z,13.33
2019-04-26T11:53:33.553Z,8.07
2019-04-26T11:56:04.563Z,11.17
2019-04-26T11:58:34.484Z,15.83
2019-04-26T12:01:05.414Z,12.67
2019-04-26T12:03:34.770Z,17.93
2019-04-26T12:06:10.313Z,7.63
2019-04-26T12:08:45.839Z,8.80
2019-04-26T12:11:18.619Z,12.80
2019-04-26T12:13:46.250Z,11.30
2019-04-26T12:16:18.885Z,10.67
2019-04-26T12:18:46.656Z,9.88
2019-04-26T12:21:16.063Z,13.50
2019-04-26T12:23:45.403Z,12.07
2019-04-26T12:26:17.317Z,18.13
2019-04-26T12:28:45.847Z,16.03
2019-04-26T12:31:15.339Z,8.20
2019-04-26T12:33:45.203Z,13.60
2019-04-26T12:36:15.258Z,22.40
2019-04-26T12:38:44.603Z,14.10
2019-04-26T12:41:17.177Z,11.57
2019-04-26T12:43:45.006Z,9.73
2019-04-26T12:46:33.283Z,18.33
2019-04-26T12:49:02.618Z,21.20
2019-04-26T12:51:31.949Z,11.70
2019-04-26T12:54:03.644Z,12.73
2019-04-26T12:56:32.803Z,15.73
2019-04-26T12:59:02.477Z,10.60
2019-04-26T13:01:31.839Z,8.80
2019-04-26T13:04:05.471Z,14.70
2019-04-26T13:06:38.798Z,10.87
2019-04-26T13:09:15.621Z,6.67
2019-04-26T13:12:06.998Z,15.13
2019-04-26T13:14:54.887Z,15.50
2019-04-26T13:17:31.333Z,12.43
2019-04-26T13:20:00.767Z,25.27
2019-04-26T13:22:32.019Z,12.80
2019-04-26T13:25:01.237Z,11.47
2019-04-26T13:27:30.627Z,11.57
2019-04-26T13:30:02.601Z,12.17
2019-04-26T13:32:31.278Z,12.63
2019-04-26T13:35:00.611Z,13.37
2019-04-26T13:37:32.206Z,12.57
2019-04-26T13:40:01.033Z,12.73
2019-04-26T13:42:30.442Z,12.97
2019-04-26T13:45:10.996Z,15.17
2019-04-26T13:47:53.807Z,10.93
2019-04-26T13:50:34.255Z,12.43
2019-04-26T13:53:03.894Z,15.97
2019-04-26T13:55:33.836Z,16.30
2019-04-26T13:58:03.530Z,16.20
2019-04-26T14:00:33.458Z,18.67
2019-04-26T14:03:02.794Z,11.33
2019-04-26T14:05:32.142Z,15.67
2019-04-26T14:08:01.487Z,18.70
2019-04-26T14:10:31.031Z,13.23
2019-04-26T14:13:00.363Z,12.57
2019-04-26T14:15:30.407Z,16.83
2019-04-26T14:18:00.213Z,13.53
2019-04-26T14:20:31.111Z,9.30
2019-04-26T14:23:37.411Z,13.60
2019-04-26T14:26:09.497Z,30.77
2019-04-26T14:28:41.805Z,14.43
2019-04-26T14:31:12.267Z,19.23
2019-04-26T14:33:41.580Z,11.10
2019-04-26T14:36:17.488Z,9.63
2019-04-26T14:38:41.987Z,12.30
2019-04-26T14:41:13.282Z,11.30
2019-04-26T14:43:42.406Z,12.47
2019-04-26T14:46:14.484Z,12.63
2019-04-26T14:48:44.774Z,9.60
2019-04-26T14:51:16.752Z,18.13
2019-04-26T14:53:45.045Z,15.33
2019-04-26T14:56:14.391Z,15.80
2019-04-26T14:58:43.725Z,12.40
2019-04-26T15:01:20.955Z,11.77
2019-04-26T15:04:09.468Z,12.83
2019-04-26T15:06:42.382Z,15.10
2019-04-26T15:09:19.447Z,20.23
2019-04-26T15:11:53.428Z,13.00
2019-04-26T15:14:19.349Z,11.13
2019-04-26T15:16:46.051Z,10.63
2019-04-26T15:19:15.811Z,11.50
2019-04-26T15:21:45.150Z,16.10
2019-04-26T15:24:14.501Z,14.33
2019-04-26T15:26:44.074Z,17.33
2019-04-26T15:29:13.423Z,11.83
2019-04-26T15:31:42.758Z,9.87
2019-04-26T15:34:12.227Z,15.30
2019-04-26T15:36:43.442Z,12.67
2019-04-26T15:39:23.205Z,12.23
2019-04-26T15:42:29.294Z,13.47
2019-04-26T15:45:13.919Z,14.10
2019-04-26T15:47:58.041Z,17.93
2019-04-26T15:50:33.740Z,21.73
2019-04-26T15:53:06.605Z,9.70
2019-04-26T15:55:39.995Z,14.07
2019-04-26T15:58:08.336Z,13.80
2019-04-26T16:00:36.792Z,14.40
2019-04-26T16:03:07.504Z,12.50
2019-04-26T16:05:37.659Z,13.35
2019-04-26T16:08:07.077Z,22.30
2019-04-26T16:10:38.357Z,15.85
2019-04-26T16:13:17.969Z,13.35
2019-04-26T16:15:38.642Z,12.58
2019-04-26T16:18:10.719Z,12.10
2019-04-26T16:20:42.278Z,17.02
2019-04-26T16:23:13.118Z,17.37
2019-04-26T16:25:42.856Z,13.00
2019-04-26T16:28:31.033Z,14.85
2019-04-26T16:31:13.848Z,13.75
2019-04-26T16:33:44.828Z,12.73
2019-04-26T16:36:14.418Z,13.60
2019-04-26T16:38:44.056Z,13.80
2019-04-26T16:41:13.401Z,17.77
2019-04-26T16:43:50.839Z,13.45
2019-04-26T16:46:20.049Z,17.12
2019-04-26T16:48:44.847Z,15.05
2019-04-26T16:51:14.413Z,17.57
2019-04-26T16:54:02.543Z,25.25
2019-04-26T16:56:15.430Z,17.77
2019-04-26T16:58:45.319Z,29.63
2019-04-26T17:01:15.387Z,31.15
2019-04-26T17:03:48.039Z,31.52
2019-04-26T17:06:15.991Z,35.52
2019-04-26T17:08:49.901Z,27.37
2019-04-26T17:11:16.478Z,42.67
2019-04-26T17:13:51.281Z,30.92
2019-04-26T17:16:16.894Z,41.95
2019-04-26T17:18:46.299Z,16.05
2019-04-26T17:21:17.505Z,24.32
2019-04-26T17:24:13.118Z,28.70
2019-04-26T17:26:51.734Z,26.23
2019-04-26T17:29:21.070Z,18.35
2019-04-26T17:31:52.126Z,16.12
2019-04-26T17:34:23.551Z,24.07
2019-04-26T17:36:52.566Z,28.30
2019-04-26T17:39:22.614Z,15.83
2019-04-26T17:41:54.254Z,14.93
2019-04-26T17:44:26.713Z,23.65
2019-04-26T17:46:57.129Z,14.05
2019-04-26T17:49:27.324Z,13.32
2019-04-26T17:51:58.147Z,16.15
2019-04-26T17:54:43.797Z,12.88
2019-04-26T17:56:58.942Z,15.35
2019-04-26T17:59:33.757Z,16.90
2019-04-26T18:02:01.190Z,26.70
2019-04-26T18:04:36.029Z,16.50
2019-04-26T18:07:05.532Z,17.70
2019-04-26T18:09:45.842Z,27.37
2019-04-26T18:12:05.005Z,19.55
2019-04-26T18:14:34.342Z,17.62
2019-04-26T18:17:10.638Z,18.77
2019-04-26T18:20:07.972Z,19.98
2019-04-26T18:22:51.683Z,20.60
2019-04-26T18:25:21.031Z,23.18
2019-04-26T18:27:50.415Z,26.97
2019-04-26T18:30:20.318Z,19.20
2019-04-26T18:32:49.729Z,20.25
2019-04-26T18:35:19.150Z,24.70
2019-04-26T18:37:48.488Z,21.12
2019-04-26T18:40:20.607Z,17.30
2019-04-26T18:42:49.295Z,19.23
2019-04-26T18:45:25.897Z,19.77
2019-04-26T18:47:49.688Z,16.27
2019-04-26T18:50:19.031Z,22.02
2019-04-26T18:53:07.304Z,23.57
2019-04-26T18:55:36.674Z,22.10
2019-04-26T18:58:06.019Z,18.75
2019-04-26T19:00:38.304Z,22.42
2019-04-26T19:03:07.649Z,31.68
2019-04-26T19:05:36.987Z,20.90
2019-04-26T19:08:07.584Z,24.75
2019-04-26T19:10:37.387Z,19.85
2019-04-26T19:13:18.377Z,21.07
2019-04-26T19:15:56.499Z,29.18
2019-04-26T19:18:56.863Z,19.40
2019-04-26T19:21:38.947Z,21.60
2019-04-26T19:24:11.541Z,25.23
2019-04-26T19:26:36.418Z,18.00
2019-04-26T19:29:15.613Z,17.98
2019-04-26T19:31:36.937Z,22.20
2019-04-26T19:34:06.671Z,18.07
2019-04-26T19:36:36.008Z,22.48
2019-04-26T19:39:07.654Z,22.80
2019-04-26T19:41:37.003Z,16.90
2019-04-26T19:44:06.348Z,32.85
2019-04-26T19:47:03.255Z,20.10
2019-04-26T19:49:54.087Z,19.87
2019-04-26T19:52:45.015Z,27.45
2019-04-26T19:55:22.598Z,59.70
2019-04-26T19:58:20.545Z,45.52
2019-04-26T20:00:48.951Z,23.83
2019-04-26T20:03:18.299Z,35.20
2019-04-26T20:05:47.666Z,37.55
2019-04-26T20:08:16.995Z,38.92
2019-04-26T20:10:46.335Z,32.48
2019-04-26T20:13:16.725Z,25.55
2019-04-26T20:15:46.191Z,23.38
2019-04-26T20:18:17.448Z,28.98
2019-04-26T20:20:46.706Z,29.12
2019-04-26T20:23:16.116Z,25.37
2019-04-26T20:25:45.467Z,22.10
2019-04-26T20:28:14.814Z,26.57
2019-04-26T20:31:08.987Z,28.73
2019-04-26T20:33:39.182Z,21.33
2019-04-26T20:36:08.534Z,37.88
2019-04-26T20:38:43.715Z,21.93
2019-04-26T20:41:08.988Z,18.05
2019-04-26T20:43:45.613Z,22.90
2019-04-26T20:46:14.900Z,23.92
2019-04-26T20:48:42.503Z,18.82
2019-04-26T20:51:12.113Z,23.35
2019-04-26T20:53:43.832Z,20.70
2019-04-26T20:56:18.272Z,22.13
2019-04-26T20:58:47.063Z,25.05
2019-04-26T21:01:16.010Z,28.50
2019-04-26T21:03:46.220Z,34.88
2019-04-26T21:06:15.960Z,26.15
2019-04-26T21:08:45.422Z,17.12
2019-04-26T21:11:15.038Z,18.60
2019-04-26T21:13:44.379Z,30.48
2019-04-26T21:16:15.422Z,26.73
2019-04-26T21:18:45.154Z,33.48
2019-04-26T21:21:16.235Z,27.75
2019-04-26T21:23:47.206Z,16.17
2019-04-26T21:26:54.264Z,18.67
2019-04-26T21:29:41.676Z,24.32
2019-04-26T21:32:20.349Z,20.05
2019-04-26T21:34:51.079Z,20.25
2019-04-26T21:37:44.215Z,16.52
2019-04-26T21:40:26.249Z,13.58
2019-04-26T21:42:59.528Z,23.00
2019-04-26T21:45:30.726Z,20.75
2019-04-26T21:47:58.042Z,15.18
2019-04-26T21:50:29.116Z,16.05
2019-04-26T21:52:58.571Z,17.05
2019-04-26T21:55:35.253Z,20.92
2019-04-26T21:58:00.595Z,21.62
2019-04-26T22:00:53.935Z,16.35
2019-04-26T22:03:23.384Z,19.05
2019-04-26T22:05:54.076Z,25.75
2019-04-26T22:08:27.574Z,19.42
2019-04-26T22:10:56.987Z,19.25
2019-04-26T22:13:33.388Z,19.05
2019-04-26T22:16:30.642Z,17.07
2019-04-26T22:19:18.073Z,21.93
2019-04-26T22:22:06.880Z,20.82
2019-04-26T22:24:38.178Z,17.95
2019-04-26T22:27:07.571Z,22.37
2019-04-26T22:29:36.925Z,13.50
2019-04-26T22:32:06.682Z,19.55
2019-04-26T22:34:37.289Z,23.07
2019-04-26T22:37:11.320Z,15.85
2019-04-26T22:39:40.003Z,20.32
2019-04-26T22:42:10.395Z,23.45
2019-04-26T22:44:48.299Z,18.45
2019-04-26T22:47:28.655Z,19.75
2019-04-26T22:49:58.077Z,17.95
2019-04-26T22:52:27.494Z,18.55
2019-04-26T22:54:56.847Z,18.02
2019-04-26T22:57:26.268Z,15.78
2019-04-26T22:59:55.687Z,19.48
2019-04-26T23:02:27.642Z,49.98
2019-04-26T23:05:00.689Z,28.77
2019-04-26T23:07:28.407Z,22.30
2019-04-26T23:09:57.828Z,17.15
2019-04-26T23:12:34.764Z,20.00
2019-04-26T23:15:35.825Z,25.43
2019-04-26T23:18:38.809Z,19.48
2019-04-26T23:21:28.034Z,17.98
2019-04-26T23:23:57.380Z,16.12
2019-04-26T23:26:26.721Z,25.72
2019-04-26T23:28:56.118Z,19.85
2019-04-26T23:31:25.758Z,15.58
2019-04-26T23:33:55.099Z,20.32
2019-04-26T23:36:24.513Z,41.23
2019-04-26T23:38:53.888Z,66.35
2019-04-26T23:41:23.679Z,41.48
2019-04-26T23:43:56.805Z,28.98
2019-04-26T23:46:25.994Z,45.45
2019-04-26T23:48:55.514Z,29.55
2019-04-26T23:51:26.212Z,25.35
2019-04-26T23:53:57.810Z,41.60
2019-04-26T23:56:26.825Z,23.35
2019-04-26T23:58:56.178Z,15.32
